sensor_id;sensor_type;location;lat;lon;timestamp;temperature;humidity
10417;DHT22;62605;49.432;8.680;2023-06-05T00:01:43;19.40;1.00
10417;DHT22;62605;49.432;8.680;2023-06-05T00:04:10;19.40;1.00
10417;DHT22;62605;49.432;8.680;2023-06-05T00:06:38;19.30;1.00
10417;DHT22;62605;49.432;8.680;2023-06-05T00:09:08;19.30;1.00
10417;DHT22;62605;49.432;8.680;2023-06-05T00:11:35;19.20;1.00
10417;DHT22;62605;49.432;8.680;2023-06-05T00:14:02;19.20;1.00
10417;DHT22;62605;49.432;8.680;2023-06-05T00:16:31;19.20;1.00
10417;DHT22;62605;49.432;8.680;2023-06-05T00:18:58;19.20;1.00
10417;DHT22;62605;49.432;8.680;2023-06-05T00:21:26;19.20;1.00
10417;DHT22;62605;49.432;8.680;2023-06-05T00:23:56;19.20;1.00
10417;DHT22;62605;49.432;8.680;2023-06-05T00:26:24;19.10;1.00
10417;DHT22;62605;49.432;8.680;2023-06-05T00:28:51;19.00;1.00
10417;DHT22;62605;49.432;8.680;2023-06-05T00:31:18;18.90;1.00
10417;DHT22;62605;49.432;8.680;2023-06-05T00:33:47;18.80;1.00
10417;DHT22;62605;49.432;8.680;2023-06-05T00:36:14;18.80;1.00
10417;DHT22;62605;49.432;8.680;2023-06-05T00:38:43;18.80;1.00
10417;DHT22;62605;49.432;8.680;2023-06-05T00:41:17;18.80;1.00
10417;DHT22;62605;49.432;8.680;2023-06-05T00:43:44;18.80;1.00
10417;DHT22;62605;49.432;8.680;2023-06-05T00:46:11;18.70;1.00
10417;DHT22;62605;49.432;8.680;2023-06-05T00:48:40;18.70;1.00
10417;DHT22;62605;49.432;8.680;2023-06-05T00:51:08;18.60;1.00
10417;DHT22;62605;49.432;8.680;2023-06-05T00:53:39;18.50;1.00
10417;DHT22;62605;49.432;8.680;2023-06-05T00:56:06;18.50;1.00
10417;DHT22;62605;49.432;8.680;2023-06-05T00:58:35;18.50;1.00
10417;DHT22;62605;49.432;8.680;2023-06-05T01:01:02;18.50;1.00
10417;DHT22;62605;49.432;8.680;2023-06-05T01:03:32;18.50;1.00
10417;DHT22;62605;49.432;8.680;2023-06-05T01:06:00;18.60;1.00
10417;DHT22;62605;49.432;8.680;2023-06-05T01:08:30;18.60;1.00
10417;DHT22;62605;49.432;8.680;2023-06-05T01:11:15;18.50;1.00
10417;DHT22;62605;49.432;8.680;2023-06-05T01:13:53;18.60;1.00
10417;DHT22;62605;49.432;8.680;2023-06-05T01:16:21;18.50;1.00
10417;DHT22;62605;49.432;8.680;2023-06-05T01:18:56;18.40;1.00
10417;DHT22;62605;49.432;8.680;2023-06-05T01:21:29;18.30;1.00
10417;DHT22;62605;49.432;8.680;2023-06-05T01:23:58;18.20;1.00
10417;DHT22;62605;49.432;8.680;2023-06-05T01:26:30;17.90;1.00
10417;DHT22;62605;49.432;8.680;2023-06-05T01:29:01;17.70;1.00
10417;DHT22;62605;49.432;8.680;2023-06-05T01:31:30;17.50;1.00
10417;DHT22;62605;49.432;8.680;2023-06-05T01:34:05;17.40;1.00
10417;DHT22;62605;49.432;8.680;2023-06-05T01:36:37;17.40;1.00
10417;DHT22;62605;49.432;8.680;2023-06-05T01:39:07;17.50;1.00
10417;DHT22;62605;49.432;8.680;2023-06-05T01:41:36;17.40;1.00
10417;DHT22;62605;49.432;8.680;2023-06-05T01:44:04;17.30;1.00
10417;DHT22;62605;49.432;8.680;2023-06-05T01:46:34;17.10;1.00
10417;DHT22;62605;49.432;8.680;2023-06-05T01:49:01;16.90;1.00
10417;DHT22;62605;49.432;8.680;2023-06-05T01:51:29;16.80;1.00
10417;DHT22;62605;49.432;8.680;2023-06-05T01:53:58;16.70;1.00
10417;DHT22;62605;49.432;8.680;2023-06-05T01:56:29;16.60;1.00
10417;DHT22;62605;49.432;8.680;2023-06-05T01:58:58;16.50;1.00
10417;DHT22;62605;49.432;8.680;2023-06-05T02:01:32;16.60;1.00
10417;DHT22;62605;49.432;8.680;2023-06-05T02:04:00;16.50;1.00
10417;DHT22;62605;49.432;8.680;2023-06-05T02:06:32;16.50;1.00
10417;DHT22;62605;49.432;8.680;2023-06-05T02:09:08;16.40;1.00
10417;DHT22;62605;49.432;8.680;2023-06-05T02:11:38;16.20;1.00
10417;DHT22;62605;49.432;8.680;2023-06-05T02:14:05;16.20;1.00
10417;DHT22;62605;49.432;8.680;2023-06-05T02:16:34;16.10;1.00
10417;DHT22;62605;49.432;8.680;2023-06-05T02:19:02;15.90;1.00
10417;DHT22;62605;49.432;8.680;2023-06-05T02:21:30;15.80;1.00
10417;DHT22;62605;49.432;8.680;2023-06-05T02:23:58;15.70;1.00
10417;DHT22;62605;49.432;8.680;2023-06-05T02:26:26;15.80;1.00
10417;DHT22;62605;49.432;8.680;2023-06-05T02:28:55;15.70;1.00
10417;DHT22;62605;49.432;8.680;2023-06-05T02:31:22;15.70;1.00
10417;DHT22;62605;49.432;8.680;2023-06-05T02:33:51;15.60;1.00
10417;DHT22;62605;49.432;8.680;2023-06-05T02:36:18;15.60;1.00
10417;DHT22;62605;49.432;8.680;2023-06-05T02:38:45;15.60;1.00
10417;DHT22;62605;49.432;8.680;2023-06-05T02:41:15;15.60;1.00
10417;DHT22;62605;49.432;8.680;2023-06-05T02:43:43;15.50;1.00
10417;DHT22;62605;49.432;8.680;2023-06-05T02:46:11;15.40;1.00
10417;DHT22;62605;49.432;8.680;2023-06-05T02:48:38;15.40;1.00
10417;DHT22;62605;49.432;8.680;2023-06-05T02:51:05;15.30;1.00
10417;DHT22;62605;49.432;8.680;2023-06-05T02:53:35;15.20;1.00
10417;DHT22;62605;49.432;8.680;2023-06-05T02:56:02;15.20;1.00
10417;DHT22;62605;49.432;8.680;2023-06-05T02:58:29;15.20;1.00
10417;DHT22;62605;49.432;8.680;2023-06-05T03:00:57;15.20;1.00
10417;DHT22;62605;49.432;8.680;2023-06-05T03:03:30;15.20;1.00
10417;DHT22;62605;49.432;8.680;2023-06-05T03:05:57;15.10;1.00
10417;DHT22;62605;49.432;8.680;2023-06-05T03:08:30;15.00;1.00
10417;DHT22;62605;49.432;8.680;2023-06-05T03:10:57;14.80;1.00
10417;DHT22;62605;49.432;8.680;2023-06-05T03:13:25;14.70;1.00
10417;DHT22;62605;49.432;8.680;2023-06-05T03:15:52;14.60;1.00
10417;DHT22;62605;49.432;8.680;2023-06-05T03:18:23;14.50;1.00
10417;DHT22;62605;49.432;8.680;2023-06-05T03:20:53;14.40;1.00
10417;DHT22;62605;49.432;8.680;2023-06-05T03:23:21;14.40;1.00
10417;DHT22;62605;49.432;8.680;2023-06-05T03:25:48;14.30;1.00
10417;DHT22;62605;49.432;8.680;2023-06-05T03:28:17;14.30;1.00
10417;DHT22;62605;49.432;8.680;2023-06-05T03:30:44;14.20;1.00
10417;DHT22;62605;49.432;8.680;2023-06-05T03:33:11;14.10;1.00
10417;DHT22;62605;49.432;8.680;2023-06-05T03:35:39;14.00;1.00
10417;DHT22;62605;49.432;8.680;2023-06-05T03:38:08;14.10;1.00
10417;DHT22;62605;49.432;8.680;2023-06-05T03:40:35;13.90;1.00
10417;DHT22;62605;49.432;8.680;2023-06-05T03:43:04;14.00;1.00
10417;DHT22;62605;49.432;8.680;2023-06-05T03:45:32;13.90;1.00
10417;DHT22;62605;49.432;8.680;2023-06-05T03:47:59;13.90;1.00
10417;DHT22;62605;49.432;8.680;2023-06-05T03:50:26;13.80;1.00
10417;DHT22;62605;49.432;8.680;2023-06-05T03:52:54;13.80;1.00
10417;DHT22;62605;49.432;8.680;2023-06-05T03:55:31;13.90;1.00
10417;DHT22;62605;49.432;8.680;2023-06-05T03:58:08;13.90;1.00
10417;DHT22;62605;49.432;8.680;2023-06-05T04:00:35;13.80;1.00
10417;DHT22;62605;49.432;8.680;2023-06-05T04:03:03;13.80;1.00
10417;DHT22;62605;49.432;8.680;2023-06-05T04:05:30;13.70;1.00
10417;DHT22;62605;49.432;8.680;2023-06-05T04:07:57;13.70;1.00
10417;DHT22;62605;49.432;8.680;2023-06-05T04:10:24;13.70;1.00
10417;DHT22;62605;49.432;8.680;2023-06-05T04:12:53;13.70;1.00
10417;DHT22;62605;49.432;8.680;2023-06-05T04:15:20;13.70;1.00
10417;DHT22;62605;49.432;8.680;2023-06-05T04:17:47;13.70;1.00
10417;DHT22;62605;49.432;8.680;2023-06-05T04:20:14;13.70;1.00
10417;DHT22;62605;49.432;8.680;2023-06-05T04:22:41;13.80;1.00
10417;DHT22;62605;49.432;8.680;2023-06-05T04:25:09;13.70;1.00
10417;DHT22;62605;49.432;8.680;2023-06-05T04:27:39;13.70;1.00
10417;DHT22;62605;49.432;8.680;2023-06-05T04:30:10;13.70;1.00
10417;DHT22;62605;49.432;8.680;2023-06-05T04:32:39;13.60;1.00
10417;DHT22;62605;49.432;8.680;2023-06-05T04:35:08;13.50;1.00
10417;DHT22;62605;49.432;8.680;2023-06-05T04:37:36;13.60;1.00
10417;DHT22;62605;49.432;8.680;2023-06-05T04:40:04;13.60;1.00
10417;DHT22;62605;49.432;8.680;2023-06-05T04:42:35;13.50;1.00
10417;DHT22;62605;49.432;8.680;2023-06-05T04:45:04;13.60;1.00
10417;DHT22;62605;49.432;8.680;2023-06-05T04:47:33;13.50;1.00
10417;DHT22;62605;49.432;8.680;2023-06-05T04:50:02;13.60;1.00
10417;DHT22;62605;49.432;8.680;2023-06-05T04:52:30;13.60;1.00
10417;DHT22;62605;49.432;8.680;2023-06-05T04:54:58;13.60;1.00
10417;DHT22;62605;49.432;8.680;2023-06-05T04:57:27;13.70;1.00
10417;DHT22;62605;49.432;8.680;2023-06-05T04:59:55;13.90;1.00
10417;DHT22;62605;49.432;8.680;2023-06-05T05:02:23;14.00;1.00
10417;DHT22;62605;49.432;8.680;2023-06-05T05:04:54;14.00;1.00
10417;DHT22;62605;49.432;8.680;2023-06-05T05:07:23;14.10;1.00
10417;DHT22;62605;49.432;8.680;2023-06-05T05:09:52;14.10;1.00
10417;DHT22;62605;49.432;8.680;2023-06-05T05:12:19;14.10;1.00
10417;DHT22;62605;49.432;8.680;2023-06-05T05:14:46;14.20;1.00
10417;DHT22;62605;49.432;8.680;2023-06-05T05:17:13;14.40;1.00
10417;DHT22;62605;49.432;8.680;2023-06-05T05:19:44;14.40;1.00
10417;DHT22;62605;49.432;8.680;2023-06-05T05:22:16;14.50;1.00
10417;DHT22;62605;49.432;8.680;2023-06-05T05:24:48;14.70;1.00
10417;DHT22;62605;49.432;8.680;2023-06-05T05:27:17;14.70;1.00
10417;DHT22;62605;49.432;8.680;2023-06-05T05:29:45;14.80;1.00
10417;DHT22;62605;49.432;8.680;2023-06-05T05:32:12;14.80;1.00
10417;DHT22;62605;49.432;8.680;2023-06-05T05:34:39;14.90;1.00
10417;DHT22;62605;49.432;8.680;2023-06-05T05:37:06;15.00;1.00
10417;DHT22;62605;49.432;8.680;2023-06-05T05:39:35;15.00;1.00
10417;DHT22;62605;49.432;8.680;2023-06-05T05:42:02;15.10;1.00
10417;DHT22;62605;49.432;8.680;2023-06-05T05:44:29;15.10;1.00
10417;DHT22;62605;49.432;8.680;2023-06-05T05:46:56;15.20;1.00
10417;DHT22;62605;49.432;8.680;2023-06-05T05:49:23;15.20;1.00
10417;DHT22;62605;49.432;8.680;2023-06-05T05:51:50;15.40;1.00
10417;DHT22;62605;49.432;8.680;2023-06-05T05:54:18;15.50;1.00
10417;DHT22;62605;49.432;8.680;2023-06-05T05:56:49;15.60;1.00
10417;DHT22;62605;49.432;8.680;2023-06-05T05:59:16;15.70;1.00
10417;DHT22;62605;49.432;8.680;2023-06-05T06:01:43;15.80;1.00
10417;DHT22;62605;49.432;8.680;2023-06-05T06:04:11;15.90;1.00
10417;DHT22;62605;49.432;8.680;2023-06-05T06:06:38;16.00;1.00
10417;DHT22;62605;49.432;8.680;2023-06-05T06:09:05;16.10;1.00
10417;DHT22;62605;49.432;8.680;2023-06-05T06:11:33;16.30;1.00
10417;DHT22;62605;49.432;8.680;2023-06-05T06:14:02;16.30;1.00
10417;DHT22;62605;49.432;8.680;2023-06-05T06:16:29;16.40;1.00
10417;DHT22;62605;49.432;8.680;2023-06-05T06:18:56;16.60;1.00
10417;DHT22;62605;49.432;8.680;2023-06-05T06:21:23;16.70;1.00
10417;DHT22;62605;49.432;8.680;2023-06-05T06:23:51;16.80;1.00
10417;DHT22;62605;49.432;8.680;2023-06-05T06:26:18;16.90;1.00
10417;DHT22;62605;49.432;8.680;2023-06-05T06:28:45;16.90;1.00
10417;DHT22;62605;49.432;8.680;2023-06-05T06:31:13;17.10;1.00
10417;DHT22;62605;49.432;8.680;2023-06-05T06:33:40;17.20;1.00
10417;DHT22;62605;49.432;8.680;2023-06-05T06:36:09;17.30;1.00
10417;DHT22;62605;49.432;8.680;2023-06-05T06:38:38;17.50;1.00
10417;DHT22;62605;49.432;8.680;2023-06-05T06:41:04;17.70;1.00
10417;DHT22;62605;49.432;8.680;2023-06-05T06:43:31;17.60;1.00
10417;DHT22;62605;49.432;8.680;2023-06-05T06:45:59;17.80;1.00
10417;DHT22;62605;49.432;8.680;2023-06-05T06:48:27;17.60;1.00
10417;DHT22;62605;49.432;8.680;2023-06-05T06:50:54;17.80;1.00
10417;DHT22;62605;49.432;8.680;2023-06-05T06:53:21;17.90;1.00
10417;DHT22;62605;49.432;8.680;2023-06-05T06:55:48;18.10;1.00
10417;DHT22;62605;49.432;8.680;2023-06-05T06:58:15;18.10;1.00
10417;DHT22;62605;49.432;8.680;2023-06-05T07:00:43;18.30;1.00
10417;DHT22;62605;49.432;8.680;2023-06-05T07:03:10;18.50;1.00
10417;DHT22;62605;49.432;8.680;2023-06-05T07:05:39;18.60;1.00
10417;DHT22;62605;49.432;8.680;2023-06-05T07:08:06;18.70;1.00
10417;DHT22;62605;49.432;8.680;2023-06-05T07:10:33;18.80;1.00
10417;DHT22;62605;49.432;8.680;2023-06-05T07:13:00;19.00;1.00
10417;DHT22;62605;49.432;8.680;2023-06-05T07:15:27;18.90;1.00
10417;DHT22;62605;49.432;8.680;2023-06-05T07:17:54;19.10;1.00
10417;DHT22;62605;49.432;8.680;2023-06-05T07:20:21;19.30;1.00
10417;DHT22;62605;49.432;8.680;2023-06-05T07:22:49;19.20;1.00
10417;DHT22;62605;49.432;8.680;2023-06-05T07:25:16;19.40;1.00
10417;DHT22;62605;49.432;8.680;2023-06-05T07:27:46;19.50;1.00
10417;DHT22;62605;49.432;8.680;2023-06-05T07:30:13;19.70;1.00
10417;DHT22;62605;49.432;8.680;2023-06-05T07:32:41;19.80;1.00
10417;DHT22;62605;49.432;8.680;2023-06-05T07:35:10;20.00;1.00
10417;DHT22;62605;49.432;8.680;2023-06-05T07:37:39;20.00;1.00
10417;DHT22;62605;49.432;8.680;2023-06-05T07:40:08;19.90;1.00
10417;DHT22;62605;49.432;8.680;2023-06-05T07:42:35;20.00;1.00
10417;DHT22;62605;49.432;8.680;2023-06-05T07:45:03;20.00;1.00
10417;DHT22;62605;49.432;8.680;2023-06-05T07:47:30;20.10;1.00
10417;DHT22;62605;49.432;8.680;2023-06-05T07:49:58;20.20;1.00
10417;DHT22;62605;49.432;8.680;2023-06-05T07:52:26;20.30;1.00
10417;DHT22;62605;49.432;8.680;2023-06-05T07:54:54;20.40;1.00
10417;DHT22;62605;49.432;8.680;2023-06-05T07:57:22;20.70;1.00
10417;DHT22;62605;49.432;8.680;2023-06-05T07:59:50;20.70;1.00
10417;DHT22;62605;49.432;8.680;2023-06-05T08:02:19;20.80;1.00
10417;DHT22;62605;49.432;8.680;2023-06-05T08:04:46;20.90;1.00
10417;DHT22;62605;49.432;8.680;2023-06-05T08:07:13;20.90;1.00
10417;DHT22;62605;49.432;8.680;2023-06-05T08:09:41;21.10;1.00
10417;DHT22;62605;49.432;8.680;2023-06-05T08:12:08;21.00;1.00
10417;DHT22;62605;49.432;8.680;2023-06-05T08:14:37;21.10;1.00
10417;DHT22;62605;49.432;8.680;2023-06-05T08:17:04;21.20;1.00
10417;DHT22;62605;49.432;8.680;2023-06-05T08:19:31;21.20;1.00
10417;DHT22;62605;49.432;8.680;2023-06-05T08:21:58;21.20;1.00
10417;DHT22;62605;49.432;8.680;2023-06-05T08:24:25;21.20;1.00
10417;DHT22;62605;49.432;8.680;2023-06-05T08:26:54;21.30;1.00
10417;DHT22;62605;49.432;8.680;2023-06-05T08:29:21;21.40;1.00
10417;DHT22;62605;49.432;8.680;2023-06-05T08:31:52;21.50;1.00
10417;DHT22;62605;49.432;8.680;2023-06-05T08:34:19;21.70;1.00
10417;DHT22;62605;49.432;8.680;2023-06-05T08:36:47;21.90;1.00
10417;DHT22;62605;49.432;8.680;2023-06-05T08:39:14;21.90;1.00
10417;DHT22;62605;49.432;8.680;2023-06-05T08:41:42;21.90;1.00
10417;DHT22;62605;49.432;8.680;2023-06-05T08:44:11;22.00;1.00
10417;DHT22;62605;49.432;8.680;2023-06-05T08:46:40;22.00;1.00
10417;DHT22;62605;49.432;8.680;2023-06-05T08:49:11;22.10;1.00
10417;DHT22;62605;49.432;8.680;2023-06-05T08:51:39;22.30;1.00
10417;DHT22;62605;49.432;8.680;2023-06-05T08:54:08;22.20;1.00
10417;DHT22;62605;49.432;8.680;2023-06-05T08:56:38;22.40;1.00
10417;DHT22;62605;49.432;8.680;2023-06-05T08:59:06;22.40;1.00
10417;DHT22;62605;49.432;8.680;2023-06-05T09:01:33;22.70;1.00
10417;DHT22;62605;49.432;8.680;2023-06-05T09:04:01;22.90;1.00
10417;DHT22;62605;49.432;8.680;2023-06-05T09:06:29;22.90;1.00
10417;DHT22;62605;49.432;8.680;2023-06-05T09:08:59;22.90;1.00
10417;DHT22;62605;49.432;8.680;2023-06-05T09:11:28;22.80;1.00
10417;DHT22;62605;49.432;8.680;2023-06-05T09:13:57;23.00;1.00
10417;DHT22;62605;49.432;8.680;2023-06-05T09:16:33;23.40;1.00
10417;DHT22;62605;49.432;8.680;2023-06-05T09:19:00;23.20;1.00
10417;DHT22;62605;49.432;8.680;2023-06-05T09:21:30;23.20;1.00
10417;DHT22;62605;49.432;8.680;2023-06-05T09:24:14;23.40;1.00
10417;DHT22;62605;49.432;8.680;2023-06-05T09:26:55;23.70;1.00
10417;DHT22;62605;49.432;8.680;2023-06-05T09:29:24;24.00;1.00
10417;DHT22;62605;49.432;8.680;2023-06-05T09:31:53;23.90;1.00
10417;DHT22;62605;49.432;8.680;2023-06-05T09:34:22;24.10;1.00
10417;DHT22;62605;49.432;8.680;2023-06-05T09:36:50;24.00;1.00
10417;DHT22;62605;49.432;8.680;2023-06-05T09:39:18;23.90;1.00
10417;DHT22;62605;49.432;8.680;2023-06-05T09:41:54;24.00;1.00
10417;DHT22;62605;49.432;8.680;2023-06-05T09:44:26;24.20;1.00
10417;DHT22;62605;49.432;8.680;2023-06-05T09:46:57;24.40;1.00
10417;DHT22;62605;49.432;8.680;2023-06-05T09:49:29;24.40;1.00
10417;DHT22;62605;49.432;8.680;2023-06-05T09:52:02;24.30;1.00
10417;DHT22;62605;49.432;8.680;2023-06-05T09:54:31;23.80;1.00
10417;DHT22;62605;49.432;8.680;2023-06-05T09:57:00;23.80;1.00
10417;DHT22;62605;49.432;8.680;2023-06-05T09:59:30;23.60;1.00
10417;DHT22;62605;49.432;8.680;2023-06-05T10:02:00;23.90;1.00
10417;DHT22;62605;49.432;8.680;2023-06-05T10:04:29;23.90;1.00
10417;DHT22;62605;49.432;8.680;2023-06-05T10:06:59;24.00;1.00
10417;DHT22;62605;49.432;8.680;2023-06-05T10:09:29;24.40;1.00
10417;DHT22;62605;49.432;8.680;2023-06-05T10:11:57;24.10;1.00
10417;DHT22;62605;49.432;8.680;2023-06-05T10:14:25;23.60;1.00
10417;DHT22;62605;49.432;8.680;2023-06-05T10:16:52;23.40;1.00
10417;DHT22;62605;49.432;8.680;2023-06-05T10:19:20;23.30;1.00
10417;DHT22;62605;49.432;8.680;2023-06-05T10:21:48;23.50;1.00
10417;DHT22;62605;49.432;8.680;2023-06-05T10:24:18;23.60;1.00
10417;DHT22;62605;49.432;8.680;2023-06-05T10:27:13;23.70;1.00
10417;DHT22;62605;49.432;8.680;2023-06-05T10:30:03;24.70;1.00
10417;DHT22;62605;49.432;8.680;2023-06-05T10:32:40;24.40;1.00
10417;DHT22;62605;49.432;8.680;2023-06-05T10:35:19;23.90;1.00
10417;DHT22;62605;49.432;8.680;2023-06-05T10:38:17;23.70;1.00
10417;DHT22;62605;49.432;8.680;2023-06-05T10:40:47;23.50;1.00
10417;DHT22;62605;49.432;8.680;2023-06-05T10:43:27;23.60;1.00
10417;DHT22;62605;49.432;8.680;2023-06-05T10:45:55;23.80;1.00
10417;DHT22;62605;49.432;8.680;2023-06-05T10:51:51;24.90;1.00
10417;DHT22;62605;49.432;8.680;2023-06-05T10:57:19;25.70;1.00
10417;DHT22;62605;49.432;8.680;2023-06-05T11:00:05;25.00;1.00
10417;DHT22;62605;49.432;8.680;2023-06-05T11:02:33;24.60;1.00
10417;DHT22;62605;49.432;8.680;2023-06-05T11:05:12;24.40;1.00
10417;DHT22;62605;49.432;8.680;2023-06-05T11:07:41;24.20;1.00
10417;DHT22;62605;49.432;8.680;2023-06-05T11:10:15;24.10;1.00
10417;DHT22;62605;49.432;8.680;2023-06-05T11:12:59;24.00;1.00
10417;DHT22;62605;49.432;8.680;2023-06-05T11:15:37;24.00;1.00
10417;DHT22;62605;49.432;8.680;2023-06-05T11:18:29;24.00;1.00
10417;DHT22;62605;49.432;8.680;2023-06-05T11:20:57;24.30;1.00
10417;DHT22;62605;49.432;8.680;2023-06-05T11:23:25;25.00;1.00
10417;DHT22;62605;49.432;8.680;2023-06-05T11:25:54;25.00;1.00
10417;DHT22;62605;49.432;8.680;2023-06-05T11:28:42;25.50;1.00
10417;DHT22;62605;49.432;8.680;2023-06-05T11:31:10;25.30;1.00
10417;DHT22;62605;49.432;8.680;2023-06-05T11:33:38;24.80;1.00
10417;DHT22;62605;49.432;8.680;2023-06-05T11:36:06;25.20;1.00
10417;DHT22;62605;49.432;8.680;2023-06-05T11:38:38;25.10;1.00
10417;DHT22;62605;49.432;8.680;2023-06-05T11:41:06;25.00;1.00
10417;DHT22;62605;49.432;8.680;2023-06-05T11:43:41;24.90;1.00
10417;DHT22;62605;49.432;8.680;2023-06-05T11:46:09;25.40;1.00
10417;DHT22;62605;49.432;8.680;2023-06-05T11:48:43;25.20;1.00
10417;DHT22;62605;49.432;8.680;2023-06-05T11:51:10;25.20;1.00
10417;DHT22;62605;49.432;8.680;2023-06-05T11:53:44;25.10;1.00
10417;DHT22;62605;49.432;8.680;2023-06-05T11:56:13;25.70;1.00
10417;DHT22;62605;49.432;8.680;2023-06-05T11:58:42;26.40;1.00
10417;DHT22;62605;49.432;8.680;2023-06-05T12:01:13;26.80;1.00
10417;DHT22;62605;49.432;8.680;2023-06-05T12:03:43;27.10;1.00
10417;DHT22;62605;49.432;8.680;2023-06-05T12:06:11;27.40;1.00
10417;DHT22;62605;49.432;8.680;2023-06-05T12:08:41;28.10;1.00
10417;DHT22;62605;49.432;8.680;2023-06-05T12:11:25;27.90;1.00
10417;DHT22;62605;49.432;8.680;2023-06-05T12:13:53;28.20;1.00
10417;DHT22;62605;49.432;8.680;2023-06-05T12:16:30;28.60;1.00
10417;DHT22;62605;49.432;8.680;2023-06-05T12:19:10;28.50;1.00
10417;DHT22;62605;49.432;8.680;2023-06-05T12:21:38;27.70;1.00
10417;DHT22;62605;49.432;8.680;2023-06-05T12:24:06;27.10;1.00
10417;DHT22;62605;49.432;8.680;2023-06-05T12:26:50;26.50;1.00
10417;DHT22;62605;49.432;8.680;2023-06-05T12:29:19;25.90;1.00
10417;DHT22;62605;49.432;8.680;2023-06-05T12:31:47;25.60;1.00
10417;DHT22;62605;49.432;8.680;2023-06-05T12:34:15;25.50;1.00
10417;DHT22;62605;49.432;8.680;2023-06-05T12:36:43;25.10;1.00
10417;DHT22;62605;49.432;8.680;2023-06-05T12:39:13;25.00;1.00
10417;DHT22;62605;49.432;8.680;2023-06-05T12:41:41;24.80;1.00
10417;DHT22;62605;49.432;8.680;2023-06-05T12:44:10;25.40;1.00
10417;DHT22;62605;49.432;8.680;2023-06-05T12:46:37;26.50;1.00
10417;DHT22;62605;49.432;8.680;2023-06-05T12:49:04;27.20;1.00
10417;DHT22;62605;49.432;8.680;2023-06-05T12:51:32;27.40;1.00
10417;DHT22;62605;49.432;8.680;2023-06-05T12:53:59;27.40;1.00
10417;DHT22;62605;49.432;8.680;2023-06-05T12:56:27;27.70;1.00
10417;DHT22;62605;49.432;8.680;2023-06-05T12:58:55;27.70;1.00
10417;DHT22;62605;49.432;8.680;2023-06-05T13:01:23;28.30;1.00
10417;DHT22;62605;49.432;8.680;2023-06-05T13:03:50;28.50;1.00
10417;DHT22;62605;49.432;8.680;2023-06-05T13:06:18;28.40;1.00
10417;DHT22;62605;49.432;8.680;2023-06-05T13:08:45;28.50;1.00
10417;DHT22;62605;49.432;8.680;2023-06-05T13:11:13;28.10;1.00
10417;DHT22;62605;49.432;8.680;2023-06-05T13:13:42;28.10;1.00
10417;DHT22;62605;49.432;8.680;2023-06-05T13:16:10;27.70;1.00
10417;DHT22;62605;49.432;8.680;2023-06-05T13:18:37;27.70;1.00
10417;DHT22;62605;49.432;8.680;2023-06-05T13:21:05;28.00;1.00
10417;DHT22;62605;49.432;8.680;2023-06-05T13:23:32;28.20;1.00
10417;DHT22;62605;49.432;8.680;2023-06-05T13:26:00;28.40;1.00
10417;DHT22;62605;49.432;8.680;2023-06-05T13:28:28;28.40;1.00
10417;DHT22;62605;49.432;8.680;2023-06-05T13:30:56;28.30;1.00
10417;DHT22;62605;49.432;8.680;2023-06-05T13:33:23;28.00;1.00
10417;DHT22;62605;49.432;8.680;2023-06-05T13:35:51;28.00;1.00
10417;DHT22;62605;49.432;8.680;2023-06-05T13:38:19;27.80;1.00
10417;DHT22;62605;49.432;8.680;2023-06-05T13:40:46;28.10;1.00
10417;DHT22;62605;49.432;8.680;2023-06-05T13:43:15;27.70;1.00
10417;DHT22;62605;49.432;8.680;2023-06-05T13:45:42;28.00;1.00
10417;DHT22;62605;49.432;8.680;2023-06-05T13:48:11;27.50;1.00
10417;DHT22;62605;49.432;8.680;2023-06-05T13:50:38;26.90;1.00
10417;DHT22;62605;49.432;8.680;2023-06-05T13:53:05;26.30;1.00
10417;DHT22;62605;49.432;8.680;2023-06-05T13:55:32;26.10;1.00
10417;DHT22;62605;49.432;8.680;2023-06-05T13:57:59;26.20;1.00
10417;DHT22;62605;49.432;8.680;2023-06-05T14:00:29;27.20;1.00
10417;DHT22;62605;49.432;8.680;2023-06-05T14:02:57;28.30;1.00
10417;DHT22;62605;49.432;8.680;2023-06-05T14:05:26;28.80;1.00
10417;DHT22;62605;49.432;8.680;2023-06-05T14:07:55;29.00;1.00
10417;DHT22;62605;49.432;8.680;2023-06-05T14:10:23;28.90;1.00
10417;DHT22;62605;49.432;8.680;2023-06-05T14:12:51;28.20;1.00
10417;DHT22;62605;49.432;8.680;2023-06-05T14:15:19;28.20;1.00
10417;DHT22;62605;49.432;8.680;2023-06-05T14:17:49;28.40;1.00
10417;DHT22;62605;49.432;8.680;2023-06-05T14:20:18;28.40;1.00
10417;DHT22;62605;49.432;8.680;2023-06-05T14:22:47;28.40;1.00
10417;DHT22;62605;49.432;8.680;2023-06-05T14:25:14;28.90;1.00
10417;DHT22;62605;49.432;8.680;2023-06-05T14:27:41;28.30;1.00
10417;DHT22;62605;49.432;8.680;2023-06-05T14:30:09;27.90;1.00
10417;DHT22;62605;49.432;8.680;2023-06-05T14:32:37;27.30;1.00
10417;DHT22;62605;49.432;8.680;2023-06-05T14:35:05;27.10;1.00
10417;DHT22;62605;49.432;8.680;2023-06-05T14:37:32;27.30;1.00
10417;DHT22;62605;49.432;8.680;2023-06-05T14:40:00;28.20;1.00
10417;DHT22;62605;49.432;8.680;2023-06-05T14:42:27;27.60;1.00
10417;DHT22;62605;49.432;8.680;2023-06-05T14:44:54;27.40;1.00
10417;DHT22;62605;49.432;8.680;2023-06-05T14:47:21;27.90;1.00
10417;DHT22;62605;49.432;8.680;2023-06-05T14:49:49;28.60;1.00
10417;DHT22;62605;49.432;8.680;2023-06-05T14:52:16;28.40;1.00
10417;DHT22;62605;49.432;8.680;2023-06-05T14:54:43;28.60;1.00
10417;DHT22;62605;49.432;8.680;2023-06-05T14:57:12;28.90;1.00
10417;DHT22;62605;49.432;8.680;2023-06-05T14:59:39;29.20;1.00
10417;DHT22;62605;49.432;8.680;2023-06-05T15:02:07;28.90;1.00
10417;DHT22;62605;49.432;8.680;2023-06-05T15:04:34;29.00;1.00
10417;DHT22;62605;49.432;8.680;2023-06-05T15:07:01;29.30;1.00
10417;DHT22;62605;49.432;8.680;2023-06-05T15:09:29;30.00;1.00
10417;DHT22;62605;49.432;8.680;2023-06-05T15:11:56;30.10;1.00
10417;DHT22;62605;49.432;8.680;2023-06-05T15:14:24;29.60;1.00
10417;DHT22;62605;49.432;8.680;2023-06-05T15:16:51;29.50;1.00
10417;DHT22;62605;49.432;8.680;2023-06-05T15:19:18;29.40;1.00
10417;DHT22;62605;49.432;8.680;2023-06-05T15:21:45;29.00;1.00
10417;DHT22;62605;49.432;8.680;2023-06-05T15:24:12;29.50;1.00
10417;DHT22;62605;49.432;8.680;2023-06-05T15:26:39;29.20;1.00
10417;DHT22;62605;49.432;8.680;2023-06-05T15:29:06;29.60;1.00
10417;DHT22;62605;49.432;8.680;2023-06-05T15:31:35;29.30;1.00
10417;DHT22;62605;49.432;8.680;2023-06-05T15:34:02;29.90;1.00
10417;DHT22;62605;49.432;8.680;2023-06-05T15:36:29;29.50;1.00
10417;DHT22;62605;49.432;8.680;2023-06-05T15:38:56;30.50;1.00
10417;DHT22;62605;49.432;8.680;2023-06-05T15:41:24;29.70;1.00
10417;DHT22;62605;49.432;8.680;2023-06-05T15:43:51;28.70;1.00
10417;DHT22;62605;49.432;8.680;2023-06-05T15:46:18;29.40;1.00
10417;DHT22;62605;49.432;8.680;2023-06-05T15:48:47;30.10;1.00
10417;DHT22;62605;49.432;8.680;2023-06-05T15:51:14;30.10;1.00
10417;DHT22;62605;49.432;8.680;2023-06-05T15:53:42;30.10;1.00
10417;DHT22;62605;49.432;8.680;2023-06-05T15:56:09;30.60;1.00
10417;DHT22;62605;49.432;8.680;2023-06-05T15:58:36;30.50;1.00
10417;DHT22;62605;49.432;8.680;2023-06-05T16:01:03;31.00;1.00
10417;DHT22;62605;49.432;8.680;2023-06-05T16:03:30;30.70;1.00